Seven Mile, Ohio
Current Conditions -  °F | °C
As of 1:53 PM on Sunday 28 Dec 2014 (Local Time) from KHAO Reporting Station
Overcast Overcast  
Wind Chill: 33°   Ceiling: 2300
Heat Index: 37°   Visibility: 10mi
Dew Point: 29°   Wind: 5mph
Humidity: 73%   Direction: 20°NNE
Pressure: 30.13"   Gusts: NA
Location:  39.48°N, 84.55°W
Report Text: KHAO 281853Z AUTO 02004KT 10SM OVC023 03/M02 A3013 RMK AO2 SLP209 T00281017
Loading
Personal Weather Stations






























Interactive Weather Map New forecast layout! Learn more

10-Day Weather Forecast

Advertisements
Track Severe Weather on mobile